Time;durP1;ratioP1;P1;durP2;ratioP2;P2;SDS_P1;SDS_P2;PMS_P1;PMS_P2;Temp;Humidity;BMP_temperature;BMP_pressure;BME280_temperature;BME280_humidity;BME280_pressure;Samples;Min_cycle;Max_cycle;Signal;HPM_P1;HPM_P2
2023/05/27 00:00:49;;;;;;;6.30;2.40;;;;;;;10.79;55.20;101076.73;131196;1254;106638;-73
2023/05/27 00:04:07;;;;;;;6.40;2.50;;;;;;;10.76;55.70;101080.79;131053;1254;108833;-73
2023/05/27 00:07:12;;;;;;;7.60;2.50;;;;;;;10.66;55.03;101081.51;131022;1250;107361;-73
2023/05/27 00:10:17;;;;;;;10.50;3.00;;;;;;;10.62;55.23;101082.72;130986;1256;107452;-72
2023/05/27 00:13:23;;;;;;;6.60;2.60;;;;;;;10.60;55.36;101082.55;131052;1263;106522;-72
2023/05/27 00:16:29;;;;;;;6.20;2.40;;;;;;;10.63;55.39;101084.23;131012;1250;107422;-74
2023/05/27 00:19:34;;;;;;;6.90;2.80;;;;;;;10.63;55.35;101086.02;131018;1253;107249;-73
2023/05/27 00:22:40;;;;;;;8.40;2.90;;;;;;;10.59;55.32;101084.73;130967;1250;107375;-71
2023/05/27 00:25:47;;;;;;;8.00;2.90;;;;;;;10.57;55.55;101087.41;131066;1251;107250;-73
2023/05/27 00:28:52;;;;;;;9.10;3.80;;;;;;;10.53;55.69;101085.60;131018;1252;106965;-74
2023/05/27 00:31:58;;;;;;;10.20;4.50;;;;;;;10.48;55.81;101086.94;131066;1250;107523;-73
2023/05/27 00:35:03;;;;;;;11.30;5.20;;;;;;;10.43;55.60;101091.30;131040;1252;107512;-73
2023/05/27 00:38:09;;;;;;;10.70;4.60;;;;;;;10.34;55.83;101089.23;131076;1251;107384;-77
2023/05/27 00:41:15;;;;;;;9.20;3.50;;;;;;;10.24;56.10;101089.69;130991;1253;107551;-78
2023/05/27 00:44:21;;;;;;;8.40;3.10;;;;;;;10.16;55.84;101081.79;131017;1250;107252;-78
2023/05/27 00:47:30;;;;;;;6.00;2.70;;;;;;;10.06;56.10;101083.70;131084;1254;107445;-78
2023/05/27 00:50:37;;;;;;;6.60;2.70;;;;;;;10.02;56.23;101081.37;131211;1254;107553;-77
2023/05/27 00:53:44;;;;;;;7.80;2.90;;;;;;;10.00;56.17;101080.63;131240;1254;107632;-78
2023/05/27 00:56:50;;;;;;;8.30;3.10;;;;;;;9.97;56.17;101081.59;131164;1254;106539;-79
2023/05/27 00:59:55;;;;;;;7.70;3.40;;;;;;;9.93;56.31;101081.79;131284;1254;107259;-78
2023/05/27 01:03:01;;;;;;;6.70;3.00;;;;;;;9.90;56.21;101084.93;131243;1254;108127;-80
2023/05/27 01:06:15;;;;;;;11.00;3.90;;;;;;;9.85;56.23;101083.90;131218;1250;109037;-76
2023/05/27 01:09:27;;;;;;;6.50;3.70;;;;;;;9.81;56.12;101088.86;131021;1254;107352;-77
2023/05/27 01:12:40;;;;;;;6.50;2.90;;;;;;;9.73;56.14;101095.31;131006;1254;107535;-76
2023/05/27 01:15:53;;;;;;;5.60;2.90;;;;;;;9.66;56.47;101093.79;130984;1251;107223;-77
2023/05/27 01:19:02;;;;;;;8.00;3.00;;;;;;;9.62;56.58;101094.31;130958;1254;107707;-77
2023/05/27 01:22:12;;;;;;;5.80;2.80;;;;;;;9.59;56.57;101098.13;131125;1251;108382;-76
2023/05/27 01:25:18;;;;;;;6.50;2.90;;;;;;;9.53;56.72;101095.02;130970;1250;107397;-75
2023/05/27 01:28:24;;;;;;;7.50;2.90;;;;;;;9.47;56.39;101095.58;130869;1254;107552;-75
2023/05/27 01:31:36;;;;;;;5.50;2.40;;;;;;;9.38;56.53;101096.80;130896;1254;107543;-74
2023/05/27 01:34:50;;;;;;;6.20;2.80;;;;;;;9.28;56.78;101099.93;131047;1250;108511;-74
2023/05/27 01:37:57;;;;;;;8.40;3.60;;;;;;;9.20;56.74;101099.48;130881;1256;107334;-72
2023/05/27 01:41:03;;;;;;;10.20;4.30;;;;;;;9.16;56.63;101101.95;131053;1251;107500;-74
2023/05/27 01:44:10;;;;;;;8.80;4.20;;;;;;;9.12;56.79;101104.97;131006;1253;106435;-74
2023/05/27 01:47:16;;;;;;;6.20;3.40;;;;;;;9.07;56.94;101108.03;131071;1255;107498;-73
2023/05/27 01:50:21;;;;;;;6.50;2.80;;;;;;;9.05;56.85;101108.84;131097;1250;107245;-71
2023/05/27 01:53:28;;;;;;;7.00;2.90;;;;;;;9.01;56.91;101107.95;131138;1253;107543;-72
2023/05/27 01:56:33;;;;;;;5.10;2.60;;;;;;;8.96;57.08;101107.62;130980;1256;107394;-73
2023/05/27 01:59:38;;;;;;;5.00;2.60;;;;;;;8.89;57.03;101112.73;130998;1254;107484;-74
2023/05/27 02:02:44;;;;;;;5.80;2.70;;;;;;;8.85;57.22;101117.38;131004;1264;106770;-72
2023/05/27 02:05:52;;;;;;;5.10;3.00;;;;;;;8.81;57.13;101111.29;131051;1253;107674;-72
2023/05/27 02:08:58;;;;;;;7.20;3.30;;;;;;;8.79;57.21;101111.29;131039;1254;107462;-73
2023/05/27 02:12:05;;;;;;;7.60;3.10;;;;;;;8.72;57.28;101113.92;131050;1252;107513;-74
2023/05/27 02:15:11;;;;;;;5.80;2.70;;;;;;;8.69;57.33;101116.52;130995;1250;107380;-74
2023/05/27 02:18:17;;;;;;;6.10;2.80;;;;;;;8.64;57.46;101120.39;130947;1250;107569;-74
2023/05/27 02:21:22;;;;;;;6.50;2.80;;;;;;;8.61;57.24;101120.98;131116;1254;106713;-73
2023/05/27 02:24:29;;;;;;;6.20;2.70;;;;;;;8.56;57.11;101124.59;131193;1250;107365;-74
2023/05/27 02:27:34;;;;;;;6.40;2.70;;;;;;;8.49;57.47;101128.64;131006;1254;107465;-74
2023/05/27 02:30:41;;;;;;;7.60;2.90;;;;;;;8.45;57.36;101134.80;131068;1249;107214;-74
2023/05/27 02:33:47;;;;;;;6.30;2.60;;;;;;;8.42;57.57;101137.87;131026;1265;107276;-75
2023/05/27 02:36:52;;;;;;;4.20;2.70;;;;;;;8.40;57.45;101139.44;130985;1251;107616;-76
2023/05/27 02:39:58;;;;;;;5.70;2.70;;;;;;;8.38;57.56;101138.48;131044;1254;107504;-76
2023/05/27 02:43:03;;;;;;;4.60;2.60;;;;;;;8.35;57.47;101133.41;131115;1254;107431;-76
2023/05/27 02:46:09;;;;;;;6.80;2.30;;;;;;;8.35;57.56;101131.50;131165;1254;107518;-76
2023/05/27 02:49:15;;;;;;;8.60;3.20;;;;;;;8.32;57.57;101132.92;130978;1254;107503;-76
2023/05/27 02:52:21;;;;;;;7.50;3.60;;;;;;;8.32;57.43;101129.45;131090;1254;107476;-75
2023/05/27 02:55:27;;;;;;;7.60;3.70;;;;;;;8.29;57.73;101131.79;131272;1252;107512;-74
2023/05/27 02:58:32;;;;;;;7.60;3.60;;;;;;;8.29;57.68;101134.75;131237;1254;107539;-75
2023/05/27 03:01:38;;;;;;;8.80;3.40;;;;;;;8.25;57.62;101135.75;131191;1254;106706;-74
2023/05/27 03:04:43;;;;;;;5.20;2.90;;;;;;;8.24;57.89;101136.86;131257;1254;107491;-74
2023/05/27 03:07:49;;;;;;;7.90;3.30;;;;;;;8.27;57.89;101138.64;131134;1249;107389;-74
2023/05/27 03:10:54;;;;;;;6.90;3.20;;;;;;;8.28;58.00;101143.86;131064;1254;107557;-74
2023/05/27 03:14:00;;;;;;;6.40;3.40;;;;;;;8.30;57.94;101143.76;131090;1254;107419;-76
2023/05/27 03:17:06;;;;;;;8.10;3.30;;;;;;;8.35;58.28;101141.95;131047;1254;107505;-77
2023/05/27 03:20:12;;;;;;;6.90;2.90;;;;;;;8.40;58.11;101143.48;131035;1253;107617;-76
2023/05/27 03:23:18;;;;;;;5.90;3.30;;;;;;;8.50;58.15;101142.73;130988;1251;107516;-76
2023/05/27 03:26:25;;;;;;;7.20;3.40;;;;;;;8.62;58.31;101144.13;131102;1250;107427;-75
2023/05/27 03:29:31;;;;;;;6.20;3.60;;;;;;;8.78;58.36;101141.33;131049;1251;107230;-73
2023/05/27 03:32:37;;;;;;;7.50;3.40;;;;;;;8.93;58.48;101140.85;131209;1257;107558;-75
2023/05/27 03:35:42;;;;;;;7.80;4.40;;;;;;;9.14;58.40;101140.24;131248;1254;107462;-75
2023/05/27 03:38:48;;;;;;;8.00;4.60;;;;;;;9.35;58.44;101143.40;131333;1254;107247;-75
2023/05/27 03:41:54;;;;;;;6.20;3.60;;;;;;;9.56;58.39;101138.84;131299;1254;108075;-74
2023/05/27 03:45:00;;;;;;;6.90;3.40;;;;;;;9.78;58.60;101139.74;131144;1254;107679;-75
2023/05/27 03:48:06;;;;;;;6.80;3.00;;;;;;;9.96;58.38;101139.50;131117;1250;107407;-75
2023/05/27 03:51:12;;;;;;;5.50;3.00;;;;;;;10.09;58.79;101138.02;131183;1254;107518;-75
2023/05/27 03:54:18;;;;;;;6.40;2.70;;;;;;;10.31;58.53;101144.62;131071;1253;107347;-75
2023/05/27 03:57:25;;;;;;;4.90;2.60;;;;;;;10.55;58.56;101141.88;131158;1254;107455;-73
2023/05/27 04:00:31;;;;;;;6.60;3.00;;;;;;;10.80;58.55;101143.95;131118;1254;107538;-73
2023/05/27 04:03:37;;;;;;;7.50;3.30;;;;;;;11.06;58.77;101149.55;131126;1251;107364;-73
2023/05/27 04:06:43;;;;;;;7.90;3.10;;;;;;;11.25;58.57;101151.45;131114;1256;107146;-74
2023/05/27 04:09:49;;;;;;;6.00;2.60;;;;;;;11.40;58.24;101151.02;131224;1254;105664;-73
2023/05/27 04:12:54;;;;;;;6.60;3.10;;;;;;;11.47;58.71;101157.73;130963;1254;107514;-71
2023/05/27 04:16:00;;;;;;;6.80;3.00;;;;;;;11.63;58.61;101161.23;131050;1265;107316;-77
2023/05/27 04:19:07;;;;;;;7.50;3.10;;;;;;;11.76;58.73;101163.11;130977;1254;107424;-76
2023/05/27 04:22:13;;;;;;;8.20;3.50;;;;;;;11.71;59.08;101169.30;131057;1254;107470;-76
2023/05/27 04:25:18;;;;;;;8.30;3.80;;;;;;;11.57;59.44;101167.30;130971;1255;107240;-74
2023/05/27 04:29:00;;;;;;;8.80;3.30;;;;;;;11.53;59.57;101166.98;130987;1255;107471;-76
2023/05/27 04:32:07;;;;;;;8.50;3.30;;;;;;;11.67;59.61;101163.55;130985;1253;108651;-76
2023/05/27 04:35:13;;;;;;;12.70;3.90;;;;;;;11.80;59.64;101169.08;131096;1250;107506;-75
2023/05/27 04:38:20;;;;;;;9.20;3.90;;;;;;;11.88;59.84;101166.34;131019;1250;107443;-75
2023/05/27 04:41:39;;;;;;;9.50;3.70;;;;;;;11.96;59.70;101174.88;131144;1254;107448;-75
2023/05/27 04:45:01;;;;;;;7.60;3.30;;;;;;;11.99;59.90;101172.83;131255;1251;106409;-77
2023/05/27 04:48:09;;;;;;;8.70;3.20;;;;;;;12.01;60.17;101177.86;131006;1254;108558;-76
2023/05/27 04:51:15;;;;;;;10.70;4.00;;;;;;;12.13;60.13;101181.05;131503;1250;108049;-76
2023/05/27 04:54:21;;;;;;;7.30;3.40;;;;;;;12.14;60.65;101181.30;131051;1255;107563;-76
2023/05/27 04:57:28;;;;;;;7.10;3.10;;;;;;;12.16;60.72;101184.35;130964;1251;106270;-73
2023/05/27 05:00:38;;;;;;;6.90;3.30;;;;;;;12.24;60.76;101189.55;131026;1250;107446;-72
2023/05/27 05:03:51;;;;;;;8.00;3.50;;;;;;;12.18;60.72;101188.58;130992;1250;200845;-71
2023/05/27 05:06:59;;;;;;;8.50;3.50;;;;;;;12.21;60.81;101187.11;131135;1256;107111;-72
2023/05/27 05:10:05;;;;;;;7.50;3.20;;;;;;;12.34;60.75;101184.85;131008;1250;107556;-72
2023/05/27 05:13:14;;;;;;;8.50;2.90;;;;;;;12.42;61.06;101181.38;131144;1253;107376;-72
2023/05/27 05:16:21;;;;;;;10.00;3.50;;;;;;;12.48;60.87;101176.38;131161;1250;108573;-71
2023/05/27 05:19:27;;;;;;;6.90;2.80;;;;;;;12.47;60.96;101177.91;131088;1254;107518;-74
2023/05/27 05:22:32;;;;;;;8.80;3.20;;;;;;;12.57;60.81;101177.02;130968;1250;107475;-70
2023/05/27 05:25:39;;;;;;;8.70;3.40;;;;;;;12.81;60.59;101177.45;130984;1255;107265;-73
2023/05/27 05:28:46;;;;;;;8.10;2.80;;;;;;;12.75;60.72;101177.73;130914;1255;107628;-72
2023/05/27 05:31:51;;;;;;;7.10;2.30;;;;;;;12.84;60.57;101179.48;131117;1249;105604;-71
2023/05/27 05:34:59;;;;;;;7.40;2.90;;;;;;;13.09;60.51;101178.84;130977;1250;107260;-73
2023/05/27 05:38:05;;;;;;;8.00;2.80;;;;;;;13.32;60.20;101181.69;130999;1261;107533;-71
2023/05/27 05:41:10;;;;;;;7.40;2.60;;;;;;;13.34;59.98;101183.06;131009;1254;107572;-71
2023/05/27 05:44:17;;;;;;;6.20;2.50;;;;;;;13.41;59.95;101189.05;131031;1250;107360;-71
2023/05/27 05:47:23;;;;;;;7.90;2.60;;;;;;;13.33;60.00;101188.75;130935;1254;107131;-69
2023/05/27 05:50:36;;;;;;;6.00;2.70;;;;;;;13.28;60.10;101190.46;130916;1250;107415;-70
2023/05/27 05:53:42;;;;;;;6.30;2.50;;;;;;;13.48;59.78;101192.34;131084;1253;107562;-70
2023/05/27 05:56:47;;;;;;;7.10;2.40;;;;;;;13.49;59.50;101190.25;131321;1253;107478;-71
2023/05/27 05:59:54;;;;;;;5.50;2.30;;;;;;;13.38;59.94;101189.72;131197;1254;107449;-71
2023/05/27 06:03:00;;;;;;;8.40;3.00;;;;;;;13.50;59.75;101191.60;131044;1249;107350;-80
2023/05/27 06:06:24;;;;;;;8.40;4.10;;;;;;;13.58;59.68;101192.20;131380;1250;107244;-80
2023/05/27 06:09:41;;;;;;;9.00;3.00;;;;;;;13.65;59.44;101183.80;131591;1250;107452;-80
2023/05/27 06:12:53;;;;;;;6.90;2.50;;;;;;;13.82;59.46;101186.33;131602;1254;107528;-80
2023/05/27 06:16:00;;;;;;;5.80;2.20;;;;;;;13.79;59.48;101189.65;131187;1254;107522;-80
2023/05/27 06:19:06;;;;;;;5.10;2.10;;;;;;;13.79;59.14;101194.88;131262;1254;107471;-80
2023/05/27 06:22:12;;;;;;;6.00;2.80;;;;;;;13.87;59.02;101199.59;131237;1256;107633;-86
2023/05/27 06:25:56;;;;;;;8.00;2.40;;;;;;;13.86;58.86;101201.66;131334;1255;107491;-83
2023/05/27 06:29:02;;;;;;;5.70;2.20;;;;;;;14.01;59.21;101200.73;131656;1249;107436;-82
2023/05/27 06:32:09;;;;;;;4.70;2.10;;;;;;;14.13;59.15;101203.42;131205;1256;107466;-85
2023/05/27 06:35:15;;;;;;;6.70;2.20;;;;;;;14.19;58.65;101200.91;131417;1251;107428;-82
2023/05/27 06:38:21;;;;;;;6.90;2.80;;;;;;;14.03;58.42;101199.82;131102;1254;107504;-81
2023/05/27 06:41:28;;;;;;;4.60;2.20;;;;;;;14.07;58.65;101199.52;131694;1251;107395;-81
2023/05/27 06:44:54;;;;;;;4.00;1.90;;;;;;;14.27;58.35;101195.62;131470;1254;107519;-81
2023/05/27 06:48:02;;;;;;;5.10;2.00;;;;;;;14.40;57.98;101197.16;131326;1254;107554;-81
2023/05/27 06:51:09;;;;;;;7.30;2.40;;;;;;;14.51;58.03;101197.84;131534;1253;107376;-82
2023/05/27 06:54:15;;;;;;;5.50;2.10;;;;;;;14.56;57.79;101199.84;131316;1254;107640;-81
2023/05/27 06:57:22;;;;;;;5.30;2.00;;;;;;;14.42;57.88;101198.22;131057;1254;107554;-81
2023/05/27 07:00:39;;;;;;;4.00;1.90;;;;;;;14.43;57.56;101202.23;131225;1249;107534;-80
2023/05/27 07:04:04;;;;;;;5.50;2.20;;;;;;;14.35;57.43;101200.56;131251;1253;107507;-80
2023/05/27 07:07:29;;;;;;;6.10;2.30;;;;;;;14.31;58.08;101199.48;131240;1254;107530;-82
2023/05/27 07:10:34;;;;;;;6.10;2.30;;;;;;;14.41;58.07;101202.03;131408;1249;107233;-83
2023/05/27 07:13:40;;;;;;;4.30;2.40;;;;;;;14.42;57.74;101200.69;131138;1250;107427;-83
2023/05/27 07:16:47;;;;;;;7.40;2.20;;;;;;;14.46;58.13;101201.77;131141;1265;107536;-82
2023/05/27 07:19:52;;;;;;;5.30;2.40;;;;;;;14.56;57.45;101206.32;131394;1254;107535;-82
2023/05/27 07:22:59;;;;;;;7.70;2.20;;;;;;;14.57;57.87;101206.93;131203;1254;107528;-82
2023/05/27 07:26:06;;;;;;;4.90;2.30;;;;;;;14.62;56.64;101207.15;131125;1255;107871;-82
2023/05/27 07:29:12;;;;;;;6.30;2.80;;;;;;;14.58;56.78;101200.23;131093;1254;107510;-82
2023/05/27 07:32:38;;;;;;;5.10;2.40;;;;;;;14.59;57.00;101209.08;131034;1254;107640;-82
2023/05/27 07:35:43;;;;;;;4.60;2.40;;;;;;;14.62;56.81;101208.77;131177;1255;107491;-82
2023/05/27 07:38:49;;;;;;;5.60;2.50;;;;;;;14.69;56.74;101204.66;131338;1250;107592;-83
2023/05/27 07:41:54;;;;;;;5.00;2.30;;;;;;;14.73;56.72;101205.52;131430;1254;107647;-83
2023/05/27 07:45:01;;;;;;;5.90;2.10;;;;;;;14.69;56.41;101205.77;131151;1250;107377;-84
2023/05/27 07:48:07;;;;;;;4.40;2.10;;;;;;;14.81;57.26;101200.17;131177;1250;107470;-83
2023/05/27 07:51:13;;;;;;;6.30;2.10;;;;;;;14.94;56.55;101198.32;131379;1254;107376;-81
2023/05/27 07:54:18;;;;;;;4.50;2.20;;;;;;;14.99;56.72;101198.51;131429;1250;107646;-81
2023/05/27 07:57:24;;;;;;;4.30;2.20;;;;;;;14.99;55.94;101197.48;131148;1250;107376;-81
2023/05/27 08:00:30;;;;;;;5.50;2.30;;;;;;;15.02;55.78;101191.46;131329;1250;107225;-84
2023/05/27 08:03:38;;;;;;;6.80;2.50;;;;;;;14.97;55.36;101188.73;131048;1265;107357;-83
2023/05/27 08:06:58;;;;;;;3.70;2.00;;;;;;;15.05;55.95;101187.83;131186;1254;107581;-84
2023/05/27 08:10:26;;;;;;;6.00;1.90;;;;;;;15.27;55.77;101182.73;131112;1254;107522;-83
2023/05/27 08:13:55;;;;;;;10.10;2.70;;;;;;;15.51;55.74;101180.74;131207;1265;107718;-83
2023/05/27 08:17:17;;;;;;;5.50;2.20;;;;;;;15.62;54.99;101177.92;131311;1254;107470;-82
2023/05/27 08:20:41;;;;;;;5.70;1.90;;;;;;;15.61;54.75;101183.73;131558;1249;108567;-86
2023/05/27 08:24:05;;;;;;;5.50;2.20;;;;;;;15.69;55.21;101181.61;131461;1254;106813;-87
2023/05/27 08:27:51;;;;;;;5.20;1.80;;;;;;;15.63;53.57;101181.19;130910;1256;107914;-76
2023/05/27 08:31:08;;;;;;;3.90;1.90;;;;;;;15.60;54.17;101179.46;131124;1254;108969;-79
2023/05/27 08:34:19;;;;;;;5.00;2.30;;;;;;;15.80;54.46;101176.65;131034;1256;106765;-78
2023/05/27 08:37:25;;;;;;;5.20;2.00;;;;;;;16.02;54.24;101174.74;131228;1253;107615;-80
2023/05/27 08:40:32;;;;;;;4.60;1.70;;;;;;;16.26;54.02;101172.02;131151;1250;107450;-71
2023/05/27 08:43:39;;;;;;;3.50;1.70;;;;;;;16.36;53.05;101172.67;130955;1254;108113;-74
2023/05/27 08:46:46;;;;;;;4.50;1.90;;;;;;;16.34;51.45;101168.98;131236;1254;107376;-73
2023/05/27 08:49:52;;;;;;;4.30;1.60;;;;;;;16.12;50.26;101166.88;131275;1250;106523;-71
2023/05/27 08:52:58;;;;;;;5.00;1.60;;;;;;;16.09;51.46;101167.41;131081;1255;106407;-72
2023/05/27 08:56:07;;;;;;;3.80;1.80;;;;;;;16.26;52.27;101167.45;130987;1255;106563;-71
2023/05/27 08:59:16;;;;;;;3.00;1.70;;;;;;;16.41;50.84;101168.33;130980;1256;107435;-73
2023/05/27 09:02:24;;;;;;;3.30;1.80;;;;;;;16.38;50.95;101166.05;131268;1255;107520;-73
2023/05/27 09:05:31;;;;;;;9.60;3.10;;;;;;;16.24;49.76;101166.48;130943;1253;106765;-72
2023/05/27 09:08:37;;;;;;;4.80;1.70;;;;;;;16.21;50.48;101158.33;131238;1265;107681;-71
2023/05/27 09:11:43;;;;;;;3.90;1.40;;;;;;;16.23;49.94;101155.44;131011;1255;107564;-71
2023/05/27 09:14:51;;;;;;;5.00;1.70;;;;;;;16.35;50.66;101159.37;131146;1255;107552;-70
2023/05/27 09:17:57;;;;;;;4.10;1.70;;;;;;;16.53;50.32;101157.34;131060;1254;107495;-74
2023/05/27 09:21:03;;;;;;;8.50;5.40;;;;;;;16.57;47.93;101158.74;131271;1254;107592;-72
2023/05/27 09:24:10;;;;;;;5.60;2.20;;;;;;;16.59;49.98;101152.25;131178;1254;107524;-72
2023/05/27 09:27:15;;;;;;;4.80;1.50;;;;;;;16.76;49.15;101155.56;131259;1250;107266;-71
2023/05/27 09:30:24;;;;;;;5.80;4.30;;;;;;;16.90;48.91;101153.70;131193;1255;108397;-74
2023/05/27 09:33:33;;;;;;;4.90;3.80;;;;;;;17.02;49.00;101150.70;131084;1255;107505;-77
2023/05/27 09:36:45;;;;;;;3.00;1.60;;;;;;;16.96;47.15;101152.57;130981;1253;107534;-76
2023/05/27 09:39:52;;;;;;;;;;;;;;;16.92;47.41;101150.77;131077;1255;106920;-77
2023/05/27 09:42:57;;;;;;;4.20;1.20;;;;;;;17.02;47.91;101143.62;131032;1254;108628;-76
2023/05/27 09:46:05;;;;;;;2.90;1.30;;;;;;;17.15;47.75;101146.68;131330;1250;107486;-80
2023/05/27 09:49:14;;;;;;;2.90;1.20;;;;;;;17.21;45.62;101151.40;131405;1250;106499;-81
2023/05/27 09:52:21;;;;;;;2.40;1.20;;;;;;;17.25;46.51;101151.25;131396;1250;107434;-80
2023/05/27 09:55:29;;;;;;;2.60;1.50;;;;;;;17.35;46.28;101151.83;131346;1255;107378;-78
2023/05/27 09:58:35;;;;;;;2.20;1.40;;;;;;;17.40;46.06;101154.46;131262;1251;107339;-82
2023/05/27 10:01:46;;;;;;;2.90;1.20;;;;;;;17.48;46.12;101162.17;131240;1250;107592;-81
2023/05/27 10:04:54;;;;;;;3.70;1.30;;;;;;;17.57;46.24;101153.00;131099;1253;107214;-83
2023/05/27 10:07:59;;;;;;;3.00;1.30;;;;;;;17.69;46.44;101150.48;131109;1255;107236;-82
2023/05/27 10:11:05;;;;;;;2.00;1.30;;;;;;;17.77;45.14;101151.29;131185;1255;107499;-83
2023/05/27 10:14:12;;;;;;;2.10;1.20;;;;;;;17.76;44.48;101152.70;131297;1252;107478;-85
2023/05/27 10:17:17;;;;;;;1.50;1.10;;;;;;;17.78;44.65;101154.09;131420;1249;107461;-83
2023/05/27 10:20:32;;;;;;;4.70;1.40;;;;;;;17.77;42.88;101156.31;131200;1254;107544;-81
2023/05/27 10:23:37;;;;;;;2.00;1.00;;;;;;;17.80;44.15;101154.75;131242;1250;107978;-81
2023/05/27 10:26:44;;;;;;;2.20;1.00;;;;;;;17.87;44.51;101144.70;131188;1255;106589;-80
2023/05/27 10:29:59;;;;;;;3.50;1.10;;;;;;;17.99;44.11;101140.68;131174;1255;107512;-82
2023/05/27 10:33:07;;;;;;;1.50;1.10;;;;;;;18.01;42.64;101137.87;131123;1249;107641;-82
2023/05/27 10:36:17;;;;;;;3.50;1.40;;;;;;;18.04;42.86;101141.35;131193;1254;108664;-82
2023/05/27 10:39:23;;;;;;;2.00;1.20;;;;;;;18.00;41.06;101138.55;131288;1254;107559;-79
2023/05/27 10:42:28;;;;;;;2.90;1.50;;;;;;;18.00;42.06;101140.70;131456;1249;107345;-80
2023/05/27 10:45:37;;;;;;;1.90;1.10;;;;;;;18.06;41.35;101141.10;131427;1254;108648;-80
2023/05/27 10:48:42;;;;;;;2.20;1.20;;;;;;;18.08;41.35;101140.37;131138;1254;107436;-80
2023/05/27 10:51:50;;;;;;;2.40;1.00;;;;;;;18.08;41.11;101139.45;131117;1254;107505;-80
2023/05/27 10:54:57;;;;;;;3.20;1.20;;;;;;;18.13;42.25;101134.83;131086;1254;107519;-80
2023/05/27 10:58:03;;;;;;;2.30;1.10;;;;;;;18.25;41.67;101138.14;131332;1250;106538;-80
2023/05/27 11:01:14;;;;;;;2.40;1.20;;;;;;;18.30;40.96;101140.10;131333;1253;107743;-81
2023/05/27 11:04:21;;;;;;;2.30;1.00;;;;;;;18.28;40.56;101135.20;131174;1250;107409;-80
2023/05/27 11:07:26;;;;;;;1.40;1.10;;;;;;;18.34;40.43;101132.43;131227;1255;107492;-80
2023/05/27 11:10:32;;;;;;;2.30;1.10;;;;;;;18.28;36.89;101132.78;131125;1254;106460;-79
2023/05/27 11:13:42;;;;;;;4.10;1.40;;;;;;;18.13;38.14;101136.31;131310;1249;107198;-80
2023/05/27 11:16:51;;;;;;;1.70;0.90;;;;;;;18.15;39.72;101131.04;131389;1255;106580;-79
2023/05/27 11:19:58;;;;;;;2.30;1.10;;;;;;;18.20;37.33;101136.06;131401;1250;107344;-80
2023/05/27 11:23:04;;;;;;;2.90;1.20;;;;;;;18.17;38.05;101139.77;131536;1249;107617;-79
2023/05/27 11:26:21;;;;;;;1.20;0.80;;;;;;;18.12;37.88;101133.05;131393;1255;106271;-78
2023/05/27 11:29:27;;;;;;;1.10;0.90;;;;;;;18.16;37.23;101129.30;131191;1250;107753;-79
2023/05/27 11:32:36;;;;;;;2.60;1.10;;;;;;;18.18;36.73;101125.52;131245;1263;108648;-79
2023/05/27 11:35:41;;;;;;;2.40;1.10;;;;;;;18.11;36.60;101128.34;131169;1253;107442;-79
2023/05/27 11:38:57;;;;;;;1.70;1.10;;;;;;;18.15;36.37;101121.65;131020;1264;107306;-79
2023/05/27 11:42:09;;;;;;;1.60;1.00;;;;;;;18.21;37.39;101115.95;131193;1255;107498;-83
2023/05/27 11:45:19;;;;;;;2.80;1.00;;;;;;;18.33;37.53;101116.11;131162;1249;108752;-78
2023/05/27 11:48:25;;;;;;;2.90;1.10;;;;;;;18.41;36.16;101116.17;131066;1255;108632;-79
2023/05/27 11:51:31;;;;;;;1.60;1.20;;;;;;;18.45;35.77;101113.77;130982;1256;106447;-79
2023/05/27 11:54:38;;;;;;;1.30;0.90;;;;;;;18.41;35.62;101114.42;131153;1249;107477;-79
2023/05/27 11:57:44;;;;;;;1.60;1.10;;;;;;;18.39;35.51;101109.98;131151;1255;107459;-79
2023/05/27 12:00:50;;;;;;;2.10;0.90;;;;;;;18.38;33.58;101105.39;130980;1250;107785;-80
2023/05/27 12:03:56;;;;;;;5.20;1.10;;;;;;;18.31;33.77;101111.48;130978;1254;108666;-82
2023/05/27 12:07:03;;;;;;;1.50;1.00;;;;;;;18.34;35.59;101110.91;131119;1254;107573;-82
2023/05/27 12:10:10;;;;;;;1.40;0.80;;;;;;;18.41;35.63;101099.48;131332;1255;106508;-82
2023/05/27 12:13:16;;;;;;;1.80;1.00;;;;;;;18.49;35.29;101097.99;131251;1250;107287;-82
2023/05/27 12:16:21;;;;;;;2.40;1.30;;;;;;;18.47;35.30;101087.24;131300;1254;107505;-81
2023/05/27 12:19:28;;;;;;;2.40;0.90;;;;;;;18.57;35.50;101097.06;131240;1249;107591;-80
2023/05/27 12:22:34;;;;;;;2.50;1.20;;;;;;;18.61;34.98;101091.45;131058;1256;107218;-79
2023/05/27 12:25:40;;;;;;;3.30;1.20;;;;;;;18.67;34.73;101093.19;130906;1256;107531;-82
2023/05/27 12:28:46;;;;;;;9.40;1.60;;;;;;;18.68;33.89;101092.08;130993;1249;107482;-81
2023/05/27 12:31:51;;;;;;;3.10;1.00;;;;;;;18.70;34.25;101084.51;131104;1255;106512;-81
2023/05/27 12:34:57;;;;;;;5.00;1.20;;;;;;;18.69;32.39;101079.79;131056;1255;107649;-81
2023/05/27 12:38:03;;;;;;;3.50;1.00;;;;;;;18.60;33.66;101076.96;131037;1254;107544;-81
2023/05/27 12:41:09;;;;;;;1.40;1.00;;;;;;;18.65;33.89;101082.70;131030;1254;107505;-82
2023/05/27 12:44:15;;;;;;;2.30;1.10;;;;;;;18.67;33.93;101076.86;131074;1254;107461;-81
2023/05/27 12:47:21;;;;;;;3.10;1.50;;;;;;;18.75;34.10;101078.48;131099;1255;107180;-81
2023/05/27 12:50:26;;;;;;;2.00;0.90;;;;;;;18.78;33.17;101078.77;131172;1258;107448;-81
2023/05/27 12:53:32;;;;;;;1.80;1.20;;;;;;;18.74;31.94;101071.59;131165;1255;108147;-81
2023/05/27 12:56:40;;;;;;;2.40;1.10;;;;;;;18.75;33.82;101067.27;131175;1254;107208;-82
2023/05/27 12:59:46;;;;;;;1.80;1.20;;;;;;;18.78;31.88;101062.55;131154;1253;107532;-82
2023/05/27 13:02:52;;;;;;;3.00;1.10;;;;;;;18.75;32.65;101062.81;131146;1255;106539;-82
2023/05/27 13:05:58;;;;;;;3.80;1.20;;;;;;;18.74;32.40;101058.06;131213;1254;108649;-82
2023/05/27 13:09:04;;;;;;;1.80;1.10;;;;;;;18.76;33.26;101059.83;131389;1255;107484;-82
2023/05/27 13:12:11;;;;;;;2.70;1.20;;;;;;;18.82;33.27;101051.09;131297;1255;108531;-82
2023/05/27 13:15:17;;;;;;;2.50;0.90;;;;;;;18.84;32.46;101050.52;131693;1250;107509;-82
2023/05/27 13:18:22;;;;;;;1.30;1.00;;;;;;;18.87;32.53;101048.54;131445;1253;107519;-81
2023/05/27 13:21:29;;;;;;;2.10;1.20;;;;;;;18.86;32.67;101046.54;131435;1252;107507;-81
2023/05/27 13:24:34;;;;;;;2.00;1.10;;;;;;;18.91;33.08;101040.71;131347;1253;107523;-82
2023/05/27 13:27:42;;;;;;;2.50;1.30;;;;;;;18.94;31.63;101040.46;131341;1251;107433;-81
2023/05/27 13:30:47;;;;;;;4.20;1.50;;;;;;;18.86;31.27;101032.43;131473;1254;107516;-81
2023/05/27 13:33:53;;;;;;;2.40;1.30;;;;;;;18.85;32.00;101031.99;131303;1254;107300;-82
2023/05/27 13:36:58;;;;;;;3.10;1.30;;;;;;;18.89;31.46;101028.66;131331;1254;107518;-82
2023/05/27 13:40:05;;;;;;;2.80;1.30;;;;;;;18.90;31.42;101026.48;131395;1254;107313;-81
2023/05/27 13:43:11;;;;;;;3.00;1.30;;;;;;;18.93;31.98;101023.65;131214;1252;107542;-82
2023/05/27 13:46:17;;;;;;;2.00;1.30;;;;;;;18.94;31.05;101026.91;131183;1251;107255;-82
2023/05/27 13:49:22;;;;;;;1.40;1.20;;;;;;;18.93;31.82;101024.52;131165;1254;107552;-81
2023/05/27 13:52:28;;;;;;;1.40;1.00;;;;;;;18.97;31.39;101022.58;131539;1251;107472;-80
2023/05/27 13:55:34;;;;;;;2.30;1.20;;;;;;;18.97;31.69;101022.25;131292;1255;107524;-80
2023/05/27 13:58:39;;;;;;;2.10;1.30;;;;;;;18.99;31.53;101020.89;131411;1254;108573;-81
2023/05/27 14:01:45;;;;;;;3.80;1.20;;;;;;;18.92;30.39;101015.86;131694;1252;107610;-81
2023/05/27 14:04:51;;;;;;;2.70;1.30;;;;;;;18.94;32.19;101011.96;131470;1261;107419;-80
2023/05/27 14:07:57;;;;;;;3.20;1.30;;;;;;;19.00;31.89;101009.09;131424;1263;108577;-80
2023/05/27 14:11:03;;;;;;;3.80;1.20;;;;;;;19.04;31.98;101008.04;131306;1253;106553;-80
2023/05/27 14:14:08;;;;;;;1.70;1.20;;;;;;;19.05;31.39;101008.30;131136;1263;107549;-79
2023/05/27 14:17:16;;;;;;;1.80;1.30;;;;;;;19.04;30.49;101007.51;131119;1252;106375;-79